createdAt,value
2023-02-08T00:00:20.780Z,102837.25
2023-02-08T00:05:23.564Z,102845.16
2023-02-08T00:10:26.300Z,102840.72
2023-02-08T00:15:30.488Z,102831.03
2023-02-08T00:20:33.242Z,102823.13
2023-02-08T00:25:37.030Z,102832.78
2023-02-08T00:30:42.144Z,102825.78
2023-02-08T00:35:45.211Z,102831.09
2023-02-08T00:40:47.971Z,102817.88
2023-02-08T00:45:56.534Z,102812.59
2023-02-08T00:51:02.310Z,102811.72
2023-02-08T00:56:05.750Z,102809.97
2023-02-08T01:01:10.719Z,102808.13
2023-02-08T01:06:16.631Z,102804.56
2023-02-08T01:11:25.085Z,102801.06
2023-02-08T01:16:31.567Z,102801.00
2023-02-08T01:21:38.595Z,102794.84
2023-02-08T01:26:41.418Z,102798.25
2023-02-08T01:31:46.380Z,102783.28
2023-02-08T01:36:49.322Z,102787.66
2023-02-08T01:41:52.096Z,102794.63
2023-02-08T01:46:56.272Z,102782.44
2023-02-08T01:52:02.650Z,102787.72
2023-02-08T01:57:06.027Z,102789.50
2023-02-08T02:02:14.654Z,102785.13
2023-02-08T02:07:19.172Z,102786.00
2023-02-08T02:12:22.641Z,102788.63
2023-02-08T02:17:28.019Z,102785.06
2023-02-08T02:22:59.689Z,102784.13
2023-02-08T02:28:23.808Z,102791.16
2023-02-08T02:33:55.540Z,102777.03
2023-02-08T02:39:06.722Z,102774.28
2023-02-08T02:44:19.778Z,102777.78
2023-02-08T02:49:32.562Z,102766.34
2023-02-08T02:54:40.829Z,102761.94
2023-02-08T02:59:45.285Z,102767.19
2023-02-08T03:04:52.839Z,102783.94
2023-02-08T03:10:06.992Z,102784.81
2023-02-08T03:15:23.559Z,102769.84
2023-02-08T03:20:32.950Z,102764.56
2023-02-08T03:25:45.570Z,102761.00
2023-02-08T03:30:54.875Z,102770.66
2023-02-08T03:36:04.528Z,102767.09
2023-02-08T03:41:11.733Z,102769.66
2023-02-08T03:46:18.583Z,102766.09
2023-02-08T03:51:24.371Z,102764.31
2023-02-08T03:56:36.589Z,102769.56
2023-02-08T04:01:40.919Z,102760.78
2023-02-08T04:06:45.140Z,102766.13
2023-02-08T04:11:47.926Z,102759.91
2023-02-08T04:16:50.772Z,102757.34
2023-02-08T04:21:55.192Z,102751.19
2023-02-08T04:26:57.936Z,102760.88
2023-02-08T04:32:01.081Z,102762.66
2023-02-08T04:37:05.243Z,102762.66
2023-02-08T04:42:08.088Z,102767.00
2023-02-08T04:47:10.895Z,102767.00
2023-02-08T04:52:15.027Z,102754.72
2023-02-08T04:57:17.814Z,102764.34
2023-02-08T05:02:20.684Z,102760.78
2023-02-08T05:07:25.263Z,102767.78
2023-02-08T05:12:28.178Z,102760.78
2023-02-08T05:17:30.952Z,102765.25
2023-02-08T05:22:35.224Z,102765.22
2023-02-08T05:27:38.507Z,102766.09
2023-02-08T05:32:41.287Z,102773.97
2023-02-08T05:37:45.426Z,102780.00
2023-02-08T05:42:48.578Z,102787.00
2023-02-08T05:47:51.365Z,102782.75
2023-02-08T05:52:55.462Z,102773.03
2023-02-08T05:57:58.218Z,102775.63
2023-02-08T06:03:01.009Z,102793.09
2023-02-08T06:08:05.499Z,102788.72
2023-02-08T06:13:08.263Z,102784.41
2023-02-08T06:18:11.746Z,102788.78
2023-02-08T06:23:15.879Z,102785.28
2023-02-08T06:28:18.827Z,102784.28
2023-02-08T06:33:21.586Z,102781.56
2023-02-08T06:38:25.727Z,102780.63
2023-02-08T06:43:28.548Z,102775.34
2023-02-08T06:48:31.367Z,102792.00
2023-02-08T06:53:35.476Z,102786.78
2023-02-08T06:58:38.758Z,102785.91
2023-02-08T07:03:42.612Z,102785.00
2023-02-08T07:08:47.215Z,102785.97
2023-02-08T07:13:51.319Z,102772.16
2023-02-08T07:18:54.090Z,102774.50
2023-02-08T07:23:58.254Z,102777.50
2023-02-08T07:29:01.249Z,102778.50
2023-02-08T07:40:34.160Z,102770.53
2023-02-08T07:45:38.550Z,102782.03
2023-02-08T07:50:41.546Z,102783.78
2023-02-08T07:55:47.780Z,102776.75
2023-02-08T08:00:50.640Z,102769.69
2023-02-08T08:05:55.013Z,102762.63
2023-02-08T08:10:59.227Z,102759.03
2023-02-08T08:16:01.967Z,102760.66
2023-02-08T08:21:05.351Z,102763.97
2023-02-08T08:26:13.838Z,102769.84
2023-02-08T08:31:18.950Z,102760.88
2023-02-08T08:36:21.788Z,102753.72
2023-02-08T08:41:27.247Z,102757.13
2023-02-08T08:46:30.058Z,102745.22
2023-02-08T08:51:35.272Z,102741.75
2023-02-08T08:56:39.426Z,102739.94
2023-02-08T09:01:42.777Z,102736.38
2023-02-08T09:06:45.594Z,102725.44
2023-02-08T09:11:50.601Z,102725.56
2023-02-08T09:16:53.720Z,102734.81
2023-02-08T09:21:57.862Z,102732.28
2023-02-08T09:27:02.199Z,102739.69
2023-02-08T09:32:05.078Z,102734.88
2023-02-08T09:37:07.856Z,102740.75
2023-02-08T09:42:29.264Z,102742.47
2023-02-08T09:47:36.313Z,102729.53
2023-02-08T09:52:45.667Z,102739.97
2023-02-08T09:57:53.016Z,102739.13
2023-02-08T10:03:00.782Z,102740.44
2023-02-08T10:08:03.646Z,102732.91
2023-02-08T10:13:25.665Z,102730.69
2023-02-08T10:18:45.044Z,102728.47
2023-02-08T10:24:06.714Z,102720.84
2023-02-08T10:29:26.796Z,102738.56
2023-02-08T10:34:43.436Z,102730.66
2023-02-08T10:39:47.398Z,102729.91
2023-02-08T10:45:18.835Z,102716.47
2023-02-08T10:50:35.267Z,102703.28
2023-02-08T10:55:44.763Z,102698.38
2023-02-08T11:00:51.820Z,102691.41
2023-02-08T11:05:55.456Z,102684.78
2023-02-08T11:11:00.931Z,102662.53
2023-02-08T11:16:07.150Z,102656.50
2023-02-08T11:21:21.805Z,102654.31
2023-02-08T11:26:33.366Z,102643.69
2023-02-08T11:31:37.528Z,102641.81
2023-02-08T11:36:47.775Z,102639.63
2023-02-08T11:41:55.161Z,102639.38
2023-02-08T11:47:02.635Z,102629.25
2023-02-08T11:52:06.869Z,102622.50
2023-02-08T11:57:15.963Z,102625.66
2023-02-08T12:02:36.933Z,102619.28
2023-02-08T12:07:50.328Z,102625.69
2023-02-08T12:13:22.719Z,102619.44
2023-02-08T12:18:40.355Z,102613.59
2023-02-08T12:23:50.249Z,102603.66
2023-02-08T12:29:16.226Z,102605.56
2023-02-08T12:34:26.686Z,102586.13
2023-02-08T12:39:58.051Z,102592.66
2023-02-08T12:45:32.696Z,102590.19
2023-02-08T12:50:43.018Z,102580.66
2023-02-08T12:55:49.883Z,102562.94
2023-02-08T13:00:54.512Z,102552.00
2023-02-08T13:06:02.421Z,102535.94
2023-02-08T13:11:19.831Z,102536.66
2023-02-08T13:16:26.217Z,102535.44
2023-02-08T13:21:37.847Z,102523.09
2023-02-08T13:26:41.822Z,102523.00
2023-02-08T13:31:49.560Z,102515.50
2023-02-08T13:36:57.340Z,102498.28
2023-02-08T13:42:01.259Z,102490.50
2023-02-08T13:47:05.863Z,102493.34
2023-02-08T13:52:10.456Z,102485.44
2023-02-08T13:57:51.243Z,102480.06
2023-02-08T14:03:01.179Z,102482.38
2023-02-08T14:08:08.276Z,102475.63
2023-02-08T14:13:29.690Z,102473.50
2023-02-08T14:18:32.583Z,102471.06
2023-02-08T14:23:40.679Z,102465.13
2023-02-08T14:28:48.759Z,102459.78
2023-02-08T14:33:55.004Z,102454.06
2023-02-08T14:39:26.181Z,102442.59
2023-02-08T14:44:59.937Z,102432.38
2023-02-08T14:50:06.695Z,102426.00
2023-02-08T14:55:17.485Z,102426.06
2023-02-08T15:00:25.426Z,102436.88
2023-02-08T15:05:30.160Z,102425.72
2023-02-08T15:10:35.144Z,102421.00
2023-02-08T15:15:41.734Z,102417.28
2023-02-08T15:20:45.194Z,102403.44
2023-02-08T15:26:00.305Z,102406.75
2023-02-08T15:31:06.127Z,102398.72
2023-02-08T15:36:16.261Z,102387.84
2023-02-08T15:41:28.244Z,102384.88
2023-02-08T15:46:32.451Z,102392.03
2023-02-08T15:51:35.373Z,102389.31
2023-02-08T15:56:42.375Z,102376.94
2023-02-08T16:01:47.769Z,102385.09
2023-02-08T16:06:53.286Z,102380.66
2023-02-08T16:12:00.340Z,102380.09
2023-02-08T16:17:04.288Z,102379.50
2023-02-08T16:22:26.539Z,102373.44
2023-02-08T16:27:33.728Z,102367.88
2023-02-08T16:32:39.666Z,102360.34
2023-02-08T16:37:43.296Z,102351.03
2023-02-08T16:42:47.533Z,102348.09
2023-02-08T16:47:53.119Z,102332.69
2023-02-08T16:53:00.205Z,102343.22
2023-02-08T16:58:04.398Z,102330.09
2023-02-08T17:03:07.205Z,102329.59
2023-02-08T17:08:20.796Z,102319.06
2023-02-08T17:13:27.004Z,102316.47
2023-02-08T17:18:32.705Z,102318.34
2023-02-08T17:23:38.008Z,102322.06
2023-02-08T17:28:42.893Z,102311.59
2023-02-08T17:33:45.987Z,102312.72
2023-02-08T17:38:49.046Z,102300.25
2023-02-08T17:43:54.830Z,102305.56
2023-02-08T17:49:00.532Z,102300.38
2023-02-08T17:54:04.854Z,102292.69
2023-02-08T17:59:09.060Z,102284.97
2023-02-08T18:04:13.264Z,102279.94
2023-02-08T18:09:16.045Z,102276.53
2023-02-08T18:14:20.328Z,102262.47
2023-02-08T18:19:23.382Z,102255.56
2023-02-08T18:24:26.191Z,102249.41
2023-02-08T18:29:30.439Z,102235.28
2023-02-08T18:39:36.445Z,102226.09
2023-02-08T18:44:40.783Z,102222.81
2023-02-08T18:49:43.655Z,102222.97
2023-02-08T18:54:46.516Z,102214.31
2023-02-08T18:59:50.847Z,102206.47
2023-02-08T19:04:53.579Z,102208.34
2023-02-08T19:09:56.378Z,102214.63
2023-02-08T19:15:00.748Z,102210.44
2023-02-08T19:20:03.978Z,102224.34
2023-02-08T19:25:07.647Z,102208.66
2023-02-08T19:30:15.594Z,102199.75
2023-02-08T19:35:19.610Z,102205.09
2023-02-08T19:40:24.187Z,102199.03
2023-02-08T19:45:28.399Z,102215.84
2023-02-08T19:50:31.211Z,102211.50
2023-02-08T19:55:33.984Z,102208.19
2023-02-08T20:00:38.115Z,102225.06
2023-02-08T20:05:41.039Z,102223.31
2023-02-08T20:10:45.811Z,102224.16
2023-02-08T20:15:50.516Z,102218.19
2023-02-08T20:21:01.098Z,102219.94
2023-02-08T20:26:06.409Z,102226.97
2023-02-08T20:31:12.541Z,102240.31
2023-02-08T20:36:17.557Z,102240.31
2023-02-08T20:41:21.619Z,102244.75
2023-02-08T20:46:28.067Z,102232.41
2023-02-08T20:51:31.352Z,102224.41
2023-02-08T20:56:36.092Z,102228.91
2023-02-08T21:01:40.298Z,102230.63
2023-02-08T21:06:45.811Z,102232.50
2023-02-08T21:11:48.997Z,102232.53
2023-02-08T21:16:56.189Z,102239.63
2023-02-08T21:22:01.338Z,102246.75
2023-02-08T21:27:04.116Z,102242.41
2023-02-08T21:32:08.307Z,102233.63
2023-02-08T21:37:11.120Z,102230.03
2023-02-08T21:42:13.926Z,102233.63
2023-02-08T21:47:17.968Z,102226.63
2023-02-08T21:52:38.397Z,102224.09
2023-02-08T21:57:41.083Z,102226.00
2023-02-08T22:02:45.182Z,102212.78
2023-02-08T22:07:50.257Z,102208.50
2023-02-08T22:12:54.989Z,102210.31
2023-02-08T22:18:03.336Z,102199.75
2023-02-08T22:23:06.272Z,102194.56
2023-02-08T22:28:09.000Z,102192.03
2023-02-08T22:33:13.081Z,102170.91
2023-02-08T22:38:15.800Z,102179.66
2023-02-08T22:43:18.577Z,102176.09
2023-02-08T22:48:22.660Z,102166.38
2023-02-08T22:53:25.499Z,102177.94
2023-02-08T22:58:28.389Z,102183.22
2023-02-08T23:03:32.939Z,102170.97
2023-02-08T23:08:36.586Z,102168.34
2023-02-08T23:13:39.766Z,102160.47
2023-02-08T23:18:44.377Z,102155.22
2023-02-08T23:23:49.324Z,102160.50
2023-02-08T23:28:53.198Z,102153.50
2023-02-08T23:33:57.314Z,102149.06
2023-02-08T23:39:01.470Z,102150.88
2023-02-08T23:44:04.712Z,102152.69
2023-02-08T23:49:08.858Z,102143.94
2023-02-08T23:54:11.590Z,102140.47
2023-02-08T23:59:14.383Z,102130.81
